Time;durP1;ratioP1;P1;durP2;ratioP2;P2;SDS_P1;SDS_P2;PMS_P1;PMS_P2;Temp;Humidity;BMP_temperature;BMP_pressure;BME280_temperature;BME280_humidity;BME280_pressure;Samples;Min_cycle;Max_cycle;Signal;HPM_P1;HPM_P2
2022/06/29 00:00:13;;;;;;;6.03;2.05;;;17.40;99.90;;;;;;5066258;28;20228;-76
2022/06/29 00:02:40;;;;;;;6.97;2.00;;;17.30;99.90;;;;;;5065658;28;20296;-80
2022/06/29 00:05:08;;;;;;;4.13;2.00;;;17.30;99.90;;;;;;5065327;28;20586;-78
2022/06/29 00:07:35;;;;;;;3.17;1.73;;;17.30;99.90;;;;;;5066474;28;20203;-78
2022/06/29 00:10:02;;;;;;;4.40;1.80;;;17.30;99.90;;;;;;5064939;28;20201;-79
2022/06/29 00:12:31;;;;;;;4.90;2.17;;;17.30;99.90;;;;;;5083779;28;20212;-78
2022/06/29 00:15:02;;;;;;;3.42;1.98;;;17.30;99.90;;;;;;5074901;28;20575;-78
2022/06/29 00:17:29;;;;;;;5.43;2.03;;;17.20;99.90;;;;;;5066265;28;20201;-74
2022/06/29 00:19:56;;;;;;;3.28;1.83;;;17.20;99.90;;;;;;5065003;28;20220;-79
2022/06/29 00:22:23;;;;;;;4.13;1.98;;;17.20;99.90;;;;;;5066079;28;20205;-80
2022/06/29 00:24:50;;;;;;;4.90;1.67;;;17.20;99.90;;;;;;5065345;28;20495;-79
2022/06/29 00:27:17;;;;;;;5.07;1.92;;;17.20;99.90;;;;;;5064616;28;20205;-80
2022/06/29 00:29:45;;;;;;;6.85;2.22;;;17.10;99.90;;;;;;5065249;28;20677;-79
2022/06/29 00:32:12;;;;;;;3.92;1.92;;;17.10;99.90;;;;;;5064551;28;20205;-79
2022/06/29 00:34:39;;;;;;;4.45;2.10;;;17.10;99.90;;;;;;5064381;28;20891;-79
2022/06/29 00:37:06;;;;;;;2.67;1.77;;;17.00;99.90;;;;;;5068738;28;20204;-76
2022/06/29 00:39:34;;;;;;;2.50;1.42;;;17.00;99.90;;;;;;5086028;28;20280;-81
2022/06/29 00:42:02;;;;;;;3.08;1.95;;;17.00;99.90;;;;;;5081952;28;20200;-80
2022/06/29 00:44:29;;;;;;;2.75;1.80;;;17.00;99.90;;;;;;5065503;28;20194;-78
2022/06/29 00:46:59;;;;;;;4.45;2.00;;;17.00;99.90;;;;;;5065289;28;20203;-80
2022/06/29 00:49:28;;;;;;;3.28;1.77;;;16.90;99.90;;;;;;5066261;28;20500;-80
2022/06/29 00:52:03;;;;;;;2.65;1.40;;;16.90;99.90;;;;;;5065368;28;20512;-79
2022/06/29 00:54:35;;;;;;;2.88;1.80;;;16.90;99.90;;;;;;5065004;28;20564;-78
2022/06/29 00:57:05;;;;;;;3.25;1.90;;;16.90;99.90;;;;;;5065069;28;20591;-76
2022/06/29 00:59:35;;;;;;;3.17;2.03;;;16.80;99.90;;;;;;5079866;28;20224;-79
2022/06/29 01:02:05;;;;;;;4.57;1.90;;;16.80;99.90;;;;;;5084874;28;20850;-80
2022/06/29 01:04:32;;;;;;;3.30;2.20;;;16.80;99.90;;;;;;5085600;28;20201;-79
2022/06/29 01:06:59;;;;;;;4.47;1.83;;;16.80;99.90;;;;;;5076694;28;20209;-81
2022/06/29 01:09:26;;;;;;;4.57;2.40;;;16.80;99.90;;;;;;5064286;28;20429;-79
2022/06/29 01:11:53;;;;;;;4.65;2.63;;;16.80;99.90;;;;;;5064926;28;20511;-79
2022/06/29 01:14:20;;;;;;;4.07;2.17;;;16.70;99.90;;;;;;5064243;28;20588;-79
2022/06/29 01:16:46;;;;;;;5.28;2.50;;;16.70;99.90;;;;;;5064253;28;20203;-77
2022/06/29 01:19:15;;;;;;;4.03;2.35;;;16.60;99.90;;;;;;5063863;28;20217;-79
2022/06/29 01:21:46;;;;;;;4.43;2.70;;;16.60;99.90;;;;;;5064122;28;20213;-79
2022/06/29 01:24:15;;;;;;;4.38;2.08;;;16.60;99.90;;;;;;5064130;28;20250;-79
2022/06/29 01:26:41;;;;;;;4.50;2.25;;;16.60;99.90;;;;;;5064932;28;20223;-80
2022/06/29 01:29:10;;;;;;;4.05;2.30;;;16.50;99.90;;;;;;5064769;28;20280;-78
2022/06/29 01:31:37;;;;;;;3.75;2.30;;;16.50;99.90;;;;;;5064111;28;20236;-79
2022/06/29 01:34:03;;;;;;;4.30;2.22;;;16.50;99.90;;;;;;5065186;28;20507;-80
2022/06/29 01:36:30;;;;;;;5.63;2.78;;;16.50;99.90;;;;;;5064447;28;20193;-77
2022/06/29 01:38:57;;;;;;;4.38;2.30;;;16.40;99.90;;;;;;5063835;28;20691;-76
2022/06/29 01:41:25;;;;;;;4.55;2.20;;;16.40;99.90;;;;;;5065295;28;20209;-79
2022/06/29 01:43:52;;;;;;;3.22;2.17;;;16.40;99.90;;;;;;5063641;28;20193;-80
2022/06/29 01:46:19;;;;;;;5.47;2.22;;;16.40;99.90;;;;;;5064304;28;20208;-80
2022/06/29 01:48:46;;;;;;;3.35;1.90;;;16.30;99.90;;;;;;5064130;28;20208;-79
2022/06/29 01:51:13;;;;;;;2.63;2.00;;;16.30;99.90;;;;;;5064147;28;20204;-80
2022/06/29 01:53:40;;;;;;;2.15;1.70;;;16.30;99.90;;;;;;5064400;28;20951;-79
2022/06/29 01:56:07;;;;;;;2.58;2.22;;;16.20;99.90;;;;;;5064273;28;20201;-80
2022/06/29 01:58:36;;;;;;;5.15;2.13;;;16.20;99.90;;;;;;5063856;28;20212;-79
2022/06/29 02:01:02;;;;;;;3.20;1.98;;;16.20;99.90;;;;;;5064053;28;20659;-80
2022/06/29 02:03:29;;;;;;;5.50;2.50;;;16.10;99.90;;;;;;5064751;28;20270;-79
2022/06/29 02:05:56;;;;;;;7.82;2.78;;;16.10;99.90;;;;;;5063894;28;20228;-80
2022/06/29 02:08:23;;;;;;;2.33;1.70;;;16.10;99.90;;;;;;5064457;28;20915;-79
2022/06/29 02:10:50;;;;;;;2.80;1.88;;;16.00;99.90;;;;;;5064123;28;20197;-80
2022/06/29 02:13:17;;;;;;;2.13;1.90;;;16.00;99.90;;;;;;5063277;28;20205;-80
2022/06/29 02:15:45;;;;;;;2.40;1.83;;;16.00;99.90;;;;;;5064419;28;20198;-80
2022/06/29 02:18:12;;;;;;;1.90;1.60;;;15.90;99.90;;;;;;5064440;28;20532;-80
2022/06/29 02:20:39;;;;;;;3.50;1.88;;;15.90;99.90;;;;;;5074167;28;20228;-77
2022/06/29 02:23:06;;;;;;;3.22;2.53;;;15.90;99.90;;;;;;5083682;28;20201;-80
2022/06/29 02:25:33;;;;;;;3.25;1.90;;;15.80;99.90;;;;;;5071139;28;20209;-81
2022/06/29 02:28:00;;;;;;;3.35;2.10;;;15.80;99.90;;;;;;5064156;28;20852;-77
2022/06/29 02:35:53;;;;;;;3.72;2.15;;;15.70;99.90;;;;;;5068441;28;20258;-76
2022/06/29 02:38:20;;;;;;;4.85;2.53;;;15.70;99.90;;;;;;5067625;28;20213;-80
2022/06/29 02:40:47;;;;;;;3.25;2.17;;;15.70;99.90;;;;;;5067346;28;20964;-80
2022/06/29 02:43:14;;;;;;;3.13;2.00;;;15.70;99.90;;;;;;5068157;28;20215;-80
2022/06/29 02:45:41;;;;;;;4.28;2.53;;;15.60;99.90;;;;;;5068482;28;20201;-77
2022/06/29 02:48:09;;;;;;;3.50;1.98;;;15.60;99.90;;;;;;5067434;28;20224;-80
2022/06/29 02:50:36;;;;;;;2.63;2.30;;;15.60;99.90;;;;;;5068216;28;20685;-80
2022/06/29 02:53:03;;;;;;;3.53;1.95;;;15.60;99.90;;;;;;5067741;28;20312;-81
2022/06/29 02:55:30;;;;;;;3.77;2.20;;;15.60;99.90;;;;;;5067435;28;20611;-80
2022/06/29 02:57:57;;;;;;;2.30;1.80;;;15.60;99.90;;;;;;5068415;28;20207;-80
2022/06/29 03:00:24;;;;;;;3.63;2.70;;;15.60;99.90;;;;;;5068226;28;20252;-81
2022/06/29 03:02:51;;;;;;;3.83;2.22;;;15.50;99.90;;;;;;5066577;28;20715;-81
2022/06/29 03:05:19;;;;;;;3.60;2.40;;;15.50;99.90;;;;;;5067904;28;20215;-80
2022/06/29 03:07:46;;;;;;;4.57;2.35;;;15.50;99.90;;;;;;5066886;28;20535;-76
2022/06/29 03:10:13;;;;;;;2.50;1.93;;;15.50;99.90;;;;;;5067808;28;20200;-80
2022/06/29 03:12:40;;;;;;;2.97;1.80;;;15.50;99.90;;;;;;5067652;28;20627;-81
2022/06/29 03:15:07;;;;;;;2.70;2.07;;;15.50;99.90;;;;;;5067065;28;20208;-78
2022/06/29 03:17:34;;;;;;;3.97;2.67;;;15.50;99.90;;;;;;5067550;28;20236;-76
2022/06/29 03:20:04;;;;;;;2.55;2.10;;;15.50;99.90;;;;;;5069152;28;20243;-80
2022/06/29 03:22:33;;;;;;;3.17;2.88;;;15.50;99.90;;;;;;5072187;28;20328;-79
2022/06/29 03:25:00;;;;;;;4.37;2.70;;;15.40;99.90;;;;;;5068020;28;20197;-79
2022/06/29 03:27:27;;;;;;;3.45;2.50;;;15.40;99.90;;;;;;5077323;28;20291;-80
2022/06/29 03:29:54;;;;;;;4.63;2.40;;;15.40;99.90;;;;;;5086822;28;20236;-81
2022/06/29 03:32:21;;;;;;;2.47;1.60;;;15.40;99.90;;;;;;5087938;28;20676;-79
2022/06/29 03:34:48;;;;;;;3.07;1.83;;;15.40;99.90;;;;;;5074285;28;20212;-80
2022/06/29 03:37:15;;;;;;;3.13;2.03;;;15.30;99.90;;;;;;5067328;28;20224;-80
2022/06/29 03:39:44;;;;;;;3.60;2.40;;;15.30;99.90;;;;;;5068091;28;20279;-80
2022/06/29 03:42:11;;;;;;;3.25;2.03;;;15.30;99.90;;;;;;5068516;28;20200;-80
2022/06/29 03:44:38;;;;;;;2.05;1.90;;;15.30;99.90;;;;;;5067731;28;20259;-80
2022/06/29 03:47:07;;;;;;;3.53;2.27;;;15.30;99.90;;;;;;5068659;28;20251;-79
2022/06/29 03:49:35;;;;;;;3.47;1.88;;;15.30;99.90;;;;;;5066520;28;20316;-81
2022/06/29 03:52:02;;;;;;;3.17;1.80;;;15.30;99.90;;;;;;5067451;28;20236;-80
2022/06/29 03:54:29;;;;;;;3.77;2.10;;;15.30;99.90;;;;;;5067443;28;20231;-80
2022/06/29 03:56:57;;;;;;;4.13;2.07;;;15.30;99.90;;;;;;5068235;28;20204;-78
2022/06/29 03:59:24;;;;;;;3.33;2.10;;;15.30;99.90;;;;;;5068585;28;20621;-79
2022/06/29 04:01:51;;;;;;;2.37;2.03;;;15.30;99.90;;;;;;5067670;28;20384;-80
2022/06/29 04:04:18;;;;;;;2.30;2.00;;;15.30;99.90;;;;;;5067852;28;20209;-80
2022/06/29 04:06:45;;;;;;;5.40;2.40;;;15.30;99.90;;;;;;5068763;28;20661;-80
2022/06/29 04:09:12;;;;;;;3.37;2.67;;;15.30;99.90;;;;;;5069011;28;20216;-80
2022/06/29 04:11:52;;;;;;;2.27;2.00;;;15.30;99.90;;;;;;5068117;28;20213;-80
2022/06/29 04:14:22;;;;;;;1.90;1.73;;;15.30;99.90;;;;;;5068664;28;20209;-78
2022/06/29 04:16:50;;;;;;;3.57;2.30;;;15.30;99.90;;;;;;5084202;28;20224;-78
2022/06/29 04:19:17;;;;;;;3.20;1.80;;;15.30;99.90;;;;;;5092932;28;20643;-81
2022/06/29 04:21:43;;;;;;;2.43;2.20;;;15.40;99.90;;;;;;5092969;28;20231;-80
2022/06/29 04:24:11;;;;;;;2.30;2.10;;;15.50;99.90;;;;;;5104755;28;20293;-78
2022/06/29 04:26:38;;;;;;;2.67;2.47;;;15.60;99.90;;;;;;5102521;28;20201;-76
2022/06/29 04:29:05;;;;;;;2.92;2.45;;;15.80;99.90;;;;;;5082286;28;20486;-79
2022/06/29 04:31:33;;;;;;;2.55;2.15;;;15.90;99.90;;;;;;5079541;28;20340;-79
2022/06/29 04:34:01;;;;;;;2.53;2.28;;;16.00;99.90;;;;;;5068662;28;20212;-79
2022/06/29 04:36:28;;;;;;;3.67;2.28;;;16.10;99.90;;;;;;5085413;28;20277;-76
2022/06/29 04:38:55;;;;;;;3.28;2.50;;;16.20;99.90;;;;;;5086176;28;20207;-78
2022/06/29 04:41:23;;;;;;;4.30;2.78;;;16.20;99.90;;;;;;5074119;28;20225;-80
2022/06/29 04:43:50;;;;;;;2.78;2.35;;;16.20;99.90;;;;;;5064885;28;20209;-75
2022/06/29 04:46:19;;;;;;;2.63;2.33;;;16.20;99.90;;;;;;5082838;28;20227;-78
2022/06/29 04:48:48;;;;;;;2.15;1.98;;;16.20;99.90;;;;;;5080091;28;20211;-80
2022/06/29 04:51:16;;;;;;;3.08;2.38;;;16.20;99.90;;;;;;5083048;28;20847;-80
2022/06/29 04:53:43;;;;;;;3.22;2.45;;;16.20;99.90;;;;;;5082528;28;20229;-79
2022/06/29 04:56:10;;;;;;;2.95;2.30;;;16.20;99.90;;;;;;5080799;28;20594;-77
2022/06/29 04:58:37;;;;;;;2.85;2.28;;;16.20;99.90;;;;;;5080171;28;20913;-78
2022/06/29 05:01:04;;;;;;;3.88;2.53;;;16.30;99.90;;;;;;5082494;28;20283;-79
2022/06/29 05:03:31;;;;;;;2.65;2.45;;;16.30;99.90;;;;;;5082446;28;20205;-79
2022/06/29 05:05:59;;;;;;;4.07;2.58;;;16.40;99.90;;;;;;5083084;28;20235;-77
2022/06/29 05:08:27;;;;;;;2.60;2.35;;;16.50;99.90;;;;;;5080247;28;20245;-79
2022/06/29 05:10:54;;;;;;;5.10;3.42;;;16.70;99.90;;;;;;5078627;28;20579;-80
2022/06/29 05:13:21;;;;;;;4.55;2.90;;;16.80;99.90;;;;;;5082111;28;20212;-77
2022/06/29 05:15:48;;;;;;;4.10;3.25;;;17.00;99.90;;;;;;5081975;28;20212;-80
2022/06/29 05:18:15;;;;;;;3.78;2.85;;;17.20;99.90;;;;;;5078449;28;20697;-79
2022/06/29 05:20:42;;;;;;;3.10;2.90;;;17.30;99.90;;;;;;5082492;28;20236;-79
2022/06/29 05:23:11;;;;;;;4.40;2.97;;;17.60;99.90;;;;;;5079115;28;20273;-77
2022/06/29 05:25:39;;;;;;;4.13;2.85;;;17.80;99.90;;;;;;5081776;28;20611;-77
2022/06/29 05:28:06;;;;;;;5.55;3.13;;;18.10;99.90;;;;;;5081990;28;20503;-76
2022/06/29 05:30:33;;;;;;;2.80;2.50;;;18.40;99.90;;;;;;5075349;28;20717;-78
2022/06/29 05:33:00;;;;;;;3.88;2.47;;;18.80;99.90;;;;;;5081511;28;20209;-77
2022/06/29 05:35:29;;;;;;;3.67;2.05;;;19.20;99.90;;;;;;5081923;28;20703;-80
2022/06/29 05:37:57;;;;;;;4.38;2.53;;;19.60;99.90;;;;;;5082102;28;20595;-76
2022/06/29 05:40:25;;;;;;;4.40;2.67;;;20.00;99.90;;;;;;5078655;28;20835;-77
2022/06/29 05:42:53;;;;;;;5.90;2.88;;;20.30;99.90;;;;;;5079450;28;20216;-78
2022/06/29 05:45:20;;;;;;;4.68;2.67;;;20.70;99.90;;;;;;5061886;28;20212;-77
2022/06/29 05:47:47;;;;;;;4.43;2.83;;;21.10;99.90;;;;;;5078663;28;20219;-79
2022/06/29 05:50:14;;;;;;;4.05;2.50;;;21.40;99.90;;;;;;5080753;28;20684;-77
2022/06/29 05:52:41;;;;;;;4.40;2.55;;;21.70;99.90;;;;;;5079410;28;20305;-78
2022/06/29 05:55:08;;;;;;;4.57;2.40;;;22.10;99.90;;;;;;5080266;28;20608;-78
2022/06/29 05:57:37;;;;;;;3.97;2.88;;;22.40;99.90;;;;;;5080893;28;20223;-77
2022/06/29 06:00:06;;;;;;;5.50;2.50;;;22.70;99.90;;;;;;5074995;28;20568;-81
2022/06/29 06:02:33;;;;;;;4.97;2.25;;;23.00;99.90;;;;;;5080073;28;20212;-80
2022/06/29 06:05:00;;;;;;;3.75;2.70;;;23.30;99.90;;;;;;5080142;28;20614;-76
2022/06/29 06:07:27;;;;;;;4.07;2.47;;;23.60;99.90;;;;;;5080837;28;21443;-78
2022/06/29 06:09:54;;;;;;;6.72;2.63;;;23.80;99.90;;;;;;5076636;28;20212;-77
2022/06/29 06:12:21;;;;;;;6.18;2.88;;;24.00;99.90;;;;;;5080136;28;20218;-77
2022/06/29 06:14:49;;;;;;;3.40;2.70;;;24.30;99.90;;;;;;5078418;28;20900;-78
2022/06/29 06:17:16;;;;;;;4.97;2.70;;;24.40;99.90;;;;;;5080912;28;20878;-75
2022/06/29 06:19:43;;;;;;;5.63;3.17;;;24.80;99.90;;;;;;5080420;28;20216;-76
2022/06/29 06:22:10;;;;;;;5.15;3.20;;;24.90;99.90;;;;;;5081400;28;20749;-76
2022/06/29 06:24:37;;;;;;;5.53;2.60;;;25.00;99.90;;;;;;5079932;28;20508;-79
2022/06/29 06:27:04;;;;;;;5.88;2.30;;;25.10;99.90;;;;;;5081055;28;20765;-78
2022/06/29 06:29:31;;;;;;;4.47;3.00;;;25.50;99.90;;;;;;5079783;28;20208;-78
2022/06/29 06:32:01;;;;;;;5.68;3.30;;;25.70;99.90;;;;;;5080334;28;20222;-77
2022/06/29 06:34:28;;;;;;;6.75;2.95;;;25.70;99.90;;;;;;5073006;28;20703;-78
2022/06/29 06:36:54;;;;;;;5.40;3.10;;;26.00;99.90;;;;;;5080447;28;20293;-79
2022/06/29 06:39:21;;;;;;;4.00;2.38;;;26.10;99.90;;;;;;5080518;28;20778;-75
2022/06/29 06:41:47;;;;;;;4.07;2.40;;;26.20;99.90;;;;;;5079806;28;20228;-81
2022/06/29 06:44:14;;;;;;;5.97;2.65;;;26.40;99.90;;;;;;5081427;28;20209;-76
2022/06/29 06:46:46;;;;;;;4.03;2.33;;;26.50;99.90;;;;;;5076444;28;20212;-77
2022/06/29 06:49:15;;;;;;;5.95;2.95;;;26.70;99.90;;;;;;5079324;28;20476;-79
2022/06/29 06:51:41;;;;;;;3.42;2.30;;;26.90;99.90;;;;;;5080985;28;20858;-77
2022/06/29 06:54:08;;;;;;;4.45;2.35;;;27.10;99.90;;;;;;5077082;28;20232;-79
2022/06/29 06:56:36;;;;;;;4.35;2.90;;;27.00;99.90;;;;;;5080334;28;20236;-76
2022/06/29 06:59:04;;;;;;;4.60;2.63;;;27.00;99.90;;;;;;5076906;28;20217;-78
2022/06/29 07:01:31;;;;;;;3.00;2.10;;;27.40;99.90;;;;;;5082201;28;20230;-78
2022/06/29 07:03:58;;;;;;;5.03;1.83;;;27.60;99.90;;;;;;5063478;28;20205;-76
2022/06/29 07:06:26;;;;;;;3.30;1.75;;;27.90;99.90;;;;;;5075771;28;20913;-77
2022/06/29 07:08:54;;;;;;;7.63;2.38;;;28.20;99.90;;;;;;5080404;28;20220;-78
2022/06/29 07:11:21;;;;;;;5.55;1.88;;;28.00;99.90;;;;;;5077908;28;20209;-77
2022/06/29 07:13:48;;;;;;;3.78;2.10;;;27.80;99.90;;;;;;5079840;28;20928;-79
2022/06/29 07:16:15;;;;;;;3.88;1.85;;;28.00;99.90;;;;;;5080782;28;20216;-76
2022/06/29 07:18:43;;;;;;;3.75;1.70;;;28.20;99.90;;;;;;5081520;28;20277;-79
2022/06/29 07:21:10;;;;;;;4.10;2.00;;;28.20;99.90;;;;;;5066283;28;20237;-78
2022/06/29 07:23:38;;;;;;;2.83;1.95;;;28.40;99.90;;;;;;5066602;28;20891;-80
2022/06/29 07:26:05;;;;;;;2.40;1.52;;;28.30;99.90;;;;;;5065931;28;20317;-79
2022/06/29 07:28:32;;;;;;;3.92;2.00;;;28.30;99.90;;;;;;5066011;28;20584;-80
2022/06/29 07:30:59;;;;;;;2.10;1.77;;;28.30;99.90;;;;;;5066463;28;20237;-78
2022/06/29 07:33:26;;;;;;;2.97;1.80;;;27.70;99.90;;;;;;5066928;28;20201;-79
2022/06/29 07:35:53;;;;;;;4.05;1.75;;;27.70;99.90;;;;;;5065591;28;20202;-80
2022/06/29 07:38:20;;;;;;;4.28;2.20;;;27.90;99.90;;;;;;5066471;28;20217;-78
2022/06/29 07:40:48;;;;;;;5.40;2.47;;;27.50;99.90;;;;;;5066284;28;20208;-78
2022/06/29 07:43:16;;;;;;;4.35;2.60;;;27.40;99.90;;;;;;5066626;28;20208;-81
2022/06/29 07:45:43;;;;;;;5.35;2.40;;;27.40;99.90;;;;;;5082383;28;20213;-81
2022/06/29 07:48:10;;;;;;;4.97;2.40;;;27.70;99.90;;;;;;5087559;28;20279;-80
2022/06/29 07:50:37;;;;;;;4.13;1.77;;;27.90;99.90;;;;;;5080660;28;20217;-81
2022/06/29 07:53:04;;;;;;;8.63;2.40;;;28.20;99.90;;;;;;5067448;28;20308;-83
2022/06/29 07:55:30;;;;;;;4.13;2.42;;;28.40;99.90;;;;;;5067414;28;20531;-79
2022/06/29 07:57:59;;;;;;;3.10;1.95;;;28.30;99.90;;;;;;5065907;28;20711;-79
2022/06/29 08:00:26;;;;;;;4.97;2.33;;;28.50;99.90;;;;;;5067129;28;20197;-80
2022/06/29 08:02:53;;;;;;;3.20;2.90;;;28.90;99.90;;;;;;5066172;28;20238;-76
2022/06/29 08:05:20;;;;;;;6.00;2.40;;;29.20;99.90;;;;;;5066010;28;20378;-76
2022/06/29 08:07:47;;;;;;;3.55;2.30;;;29.40;99.90;;;;;;5065965;28;20235;-78
2022/06/29 08:10:14;;;;;;;3.67;2.15;;;29.60;99.90;;;;;;5065394;28;20201;-77
2022/06/29 08:12:41;;;;;;;4.95;2.10;;;29.90;99.90;;;;;;5064488;28;20204;-80
2022/06/29 08:15:10;;;;;;;3.40;1.83;;;30.00;99.90;;;;;;5065991;28;20205;-78
2022/06/29 08:17:37;;;;;;;4.45;2.42;;;30.40;99.90;;;;;;5065653;28;20919;-80
2022/06/29 08:20:05;;;;;;;4.18;1.90;;;30.30;99.90;;;;;;5064613;28;20209;-77
2022/06/29 08:22:32;;;;;;;4.20;2.42;;;30.60;99.90;;;;;;5072948;22;20886;-77
2022/06/29 08:24:59;;;;;;;2.95;1.90;;;30.80;99.90;;;;;;5064172;28;20205;-81
2022/06/29 08:27:26;;;;;;;5.07;1.98;;;31.00;99.90;;;;;;5065604;28;20201;-77
2022/06/29 08:29:54;;;;;;;3.75;1.85;;;31.10;99.90;;;;;;5047057;28;20209;-80
2022/06/29 08:32:22;;;;;;;2.25;1.80;;;31.50;99.90;;;;;;5064004;28;20505;-80
2022/06/29 08:34:49;;;;;;;3.20;1.55;;;31.60;99.90;;;;;;5064409;28;20203;-77
2022/06/29 08:37:16;;;;;;;2.42;1.67;;;31.80;99.90;;;;;;5064769;28;20212;-78
2022/06/29 08:39:43;;;;;;;3.40;1.75;;;31.70;99.90;;;;;;5064294;28;20502;-84
2022/06/29 08:42:11;;;;;;;3.92;1.92;;;31.70;99.90;;;;;;5061268;28;20717;-77
2022/06/29 08:44:39;;;;;;;5.75;1.85;;;31.90;99.90;;;;;;5045029;28;20205;-78
2022/06/29 08:47:08;;;;;;;4.97;1.42;;;31.60;99.90;;;;;;5044716;28;20201;-81
2022/06/29 08:49:37;;;;;;;3.78;1.70;;;31.40;99.90;;;;;;5044342;28;20213;-79
2022/06/29 08:52:06;;;;;;;4.50;1.80;;;31.20;99.90;;;;;;5044825;28;21042;-82
2022/06/29 08:54:36;;;;;;;3.42;1.60;;;31.20;99.90;;;;;;5044913;28;20535;-82
2022/06/29 08:57:04;;;;;;;4.32;1.50;;;31.00;99.90;;;;;;5044294;28;20212;-78
2022/06/29 08:59:33;;;;;;;3.53;1.55;;;30.80;99.90;;;;;;5042642;28;20217;-78
2022/06/29 09:02:00;;;;;;;2.75;1.83;;;30.90;99.90;;;;;;5044211;28;20709;-77
2022/06/29 09:04:27;;;;;;;3.30;1.50;;;30.90;99.90;;;;;;5044189;28;20514;-78
2022/06/29 09:06:56;;;;;;;5.20;1.58;;;31.00;99.90;;;;;;5043435;28;20296;-80
2022/06/29 09:09:24;;;;;;;2.33;1.33;;;31.10;99.90;;;;;;5044052;28;20205;-81
2022/06/29 09:11:52;;;;;;;2.33;1.50;;;31.10;99.90;;;;;;5043791;28;20204;-80
2022/06/29 09:14:21;;;;;;;1.92;1.10;;;31.30;99.90;;;;;;5043649;28;20821;-81
2022/06/29 09:16:59;;;;;;;2.33;1.50;;;31.30;99.90;;;;;;5044409;28;20210;-79
2022/06/29 09:19:28;;;;;;;4.97;1.33;;;31.40;99.90;;;;;;5043651;28;20205;-80
2022/06/29 09:21:59;;;;;;;3.22;1.20;;;31.30;99.90;;;;;;5042960;28;20291;-79
2022/06/29 09:24:29;;;;;;;3.97;1.40;;;31.50;99.90;;;;;;5044188;28;20514;-78
2022/06/29 09:26:57;;;;;;;4.43;1.30;;;32.00;99.90;;;;;;5044154;28;20205;-80
2022/06/29 09:29:27;;;;;;;3.83;1.50;;;32.10;99.90;;;;;;5043490;28;20202;-81
2022/06/29 09:32:14;;;;;;;6.07;1.60;;;31.50;99.90;;;;;;5043720;28;20566;-79
2022/06/29 09:34:43;;;;;;;2.03;1.52;;;31.30;99.90;;;;;;5043282;28;20590;-76
2022/06/29 09:37:13;;;;;;;3.63;1.60;;;31.30;99.90;;;;;;5043868;28;20198;-80
2022/06/29 09:39:42;;;;;;;2.72;1.50;;;31.60;99.90;;;;;;5044151;28;20240;-77
2022/06/29 09:42:12;;;;;;;5.53;1.63;;;31.70;99.90;;;;;;5043181;28;20259;-80
2022/06/29 09:44:39;;;;;;;2.80;1.52;;;31.60;99.90;;;;;;5043018;28;20636;-80
2022/06/29 09:47:09;;;;;;;3.20;1.63;;;31.80;99.90;;;;;;5043749;28;20275;-79
2022/06/29 09:49:37;;;;;;;3.67;1.20;;;31.90;99.90;;;;;;5042701;28;20221;-77
2022/06/29 09:52:07;;;;;;;5.15;1.50;;;32.20;99.90;;;;;;5043988;28;20194;-81
2022/06/29 09:54:40;;;;;;;3.00;1.45;;;32.20;99.90;;;;;;5043545;28;20217;-79
2022/06/29 09:57:08;;;;;;;3.72;1.80;;;31.70;99.90;;;;;;5043501;28;20201;-77
2022/06/29 10:02:35;;;;;;;2.55;1.60;;;31.60;99.90;;;;;;5043303;28;20254;-79
2022/06/29 10:05:05;;;;;;;4.30;1.85;;;31.60;99.90;;;;;;5043160;28;20268;-82
2022/06/29 10:07:34;;;;;;;2.63;1.42;;;31.20;99.90;;;;;;5044362;28;20202;-76
2022/06/29 10:10:05;;;;;;;2.80;1.77;;;30.90;99.90;;;;;;5042698;28;20910;-75
2022/06/29 10:15:44;;;;;;;3.28;1.60;;;31.20;99.90;;;;;;5043709;28;20189;-77
2022/06/29 10:18:21;;;;;;;3.10;1.50;;;31.10;99.90;;;;;;5042597;28;20210;-79
2022/06/29 10:20:50;;;;;;;3.15;1.48;;;31.30;99.90;;;;;;5063085;28;20209;-75
2022/06/29 10:23:43;;;;;;;2.60;1.65;;;31.30;99.90;;;;;;5048722;28;20222;-80
2022/06/29 10:26:46;;;;;;;3.10;1.67;;;31.30;99.90;;;;;;5042692;28;20201;-77
2022/06/29 10:29:29;;;;;;;2.33;1.38;;;31.40;99.90;;;;;;5042397;28;20217;-79
2022/06/29 10:32:05;;;;;;;4.00;1.88;;;31.60;99.90;;;;;;5040810;28;20233;-78
2022/06/29 10:35:07;;;;;;;4.03;1.70;;;31.50;99.90;;;;;;5043479;28;20289;-80
2022/06/29 10:37:29;;;;;;;3.47;1.70;;;31.20;99.90;;;;;;5042559;28;20214;-80
2022/06/29 10:40:00;;;;;;;2.05;1.35;;;30.70;99.90;;;;;;5043473;28;20209;-80
2022/06/29 10:45:42;;;;;;;3.50;1.33;;;30.60;99.90;;;;;;5043037;28;20193;-81
2022/06/29 10:48:17;;;;;;;3.40;1.50;;;30.70;99.90;;;;;;5042672;28;20612;-76
2022/06/29 10:50:46;;;;;;;2.78;1.33;;;30.50;99.90;;;;;;5043131;28;20205;-78
2022/06/29 10:53:14;;;;;;;4.32;1.38;;;30.80;99.90;;;;;;5042007;28;20237;-80
2022/06/29 10:55:42;;;;;;;2.20;1.25;;;30.70;99.90;;;;;;5045603;28;20622;-79
2022/06/29 10:58:10;;;;;;;2.53;1.50;;;30.70;99.90;;;;;;5045983;28;20665;-75
2022/06/29 11:00:42;;;;;;;4.43;1.35;;;31.00;99.90;;;;;;5046281;28;20891;-79
2022/06/29 11:03:11;;;;;;;1.70;1.25;;;31.30;99.90;;;;;;5046691;28;20233;-78
2022/06/29 11:12:01;;;;;;;3.95;1.40;;;31.70;99.90;;;;;;5046003;28;20625;-76
2022/06/29 11:14:02;;;;;;;3.67;1.10;;;31.50;99.90;;;;;;5046253;28;20201;-80
2022/06/29 11:16:30;;;;;;;3.30;1.40;;;31.30;99.90;;;;;;5047080;28;20194;-80
2022/06/29 11:18:58;;;;;;;4.65;1.27;;;31.10;99.90;;;;;;5046171;28;20190;-79
2022/06/29 11:21:28;;;;;;;4.40;1.20;;;31.30;99.90;;;;;;5046138;28;20240;-78
2022/06/29 11:23:57;;;;;;;1.98;1.15;;;31.40;99.90;;;;;;5048182;28;20229;-77
2022/06/29 11:26:27;;;;;;;2.85;1.10;;;31.70;99.90;;;;;;5047271;28;20289;-81
2022/06/29 11:28:54;;;;;;;2.95;1.02;;;32.00;99.90;;;;;;5046436;28;20835;-80
2022/06/29 11:31:22;;;;;;;2.65;1.15;;;31.60;99.90;;;;;;5045562;28;20504;-80
2022/06/29 11:33:52;;;;;;;3.53;1.00;;;31.70;99.90;;;;;;5046909;28;20283;-80
2022/06/29 11:36:21;;;;;;;1.85;1.08;;;31.60;99.90;;;;;;5046173;28;20606;-81
2022/06/29 11:38:50;;;;;;;3.17;1.42;;;31.60;99.90;;;;;;5045948;28;20275;-80
2022/06/29 11:41:18;;;;;;;2.00;1.42;;;31.70;99.90;;;;;;5044547;28;20218;-76
2022/06/29 11:43:46;;;;;;;5.07;1.17;;;31.30;99.90;;;;;;5045649;28;20546;-79
2022/06/29 11:46:21;;;;;;;2.42;1.00;;;31.00;99.90;;;;;;5045545;28;20202;-81
2022/06/29 11:51:48;;;;;;;9.25;6.45;;;31.60;99.90;;;;;;5045997;28;20197;-78
2022/06/29 11:54:15;;;;;;;8.00;6.35;;;30.90;99.90;;;;;;5045408;28;20312;-80
2022/06/29 11:56:43;;;;;;;7.25;6.43;;;30.40;99.90;;;;;;5045350;28;20241;-77
2022/06/29 11:59:15;;;;;;;7.63;6.85;;;30.00;99.90;;;;;;5045546;28;20214;-81
2022/06/29 12:01:52;;;;;;;8.52;5.68;;;29.70;99.90;;;;;;5045765;28;20206;-78
2022/06/29 12:04:30;;;;;;;10.07;6.50;;;29.50;99.90;;;;;;5050318;28;20213;-80
2022/06/29 12:07:08;;;;;;;7.15;4.85;;;29.30;99.90;;;;;;5064064;28;20733;-80
2022/06/29 12:09:37;;;;;;;10.75;6.35;;;29.20;99.90;;;;;;5065069;28;20365;-78
2022/06/29 12:12:05;;;;;;;11.32;7.13;;;29.20;99.90;;;;;;5064887;28;20898;-81
2022/06/29 12:14:31;;;;;;;6.90;4.97;;;29.20;99.90;;;;;;5047759;28;20198;-76
2022/06/29 12:16:58;;;;;;;6.53;4.50;;;29.30;99.90;;;;;;5044781;28;20233;-76
2022/06/29 12:19:25;;;;;;;10.25;6.35;;;29.40;99.90;;;;;;5045368;28;20229;-77
2022/06/29 12:21:54;;;;;;;7.32;5.10;;;29.40;99.90;;;;;;5045337;28;20230;-80
2022/06/29 12:24:21;;;;;;;8.73;5.45;;;29.40;99.90;;;;;;5061451;28;20236;-79
2022/06/29 12:26:48;;;;;;;8.10;6.18;;;29.40;99.90;;;;;;5062933;28;20204;-75
2022/06/29 12:29:15;;;;;;;7.68;5.95;;;29.50;99.90;;;;;;5044984;28;20205;-78
2022/06/29 12:31:42;;;;;;;8.85;7.18;;;29.80;99.90;;;;;;5044376;28;20217;-77
2022/06/29 12:34:10;;;;;;;6.53;5.30;;;29.60;99.90;;;;;;5045360;28;20774;-78
2022/06/29 12:36:37;;;;;;;9.57;5.80;;;29.30;99.90;;;;;;5045588;28;20652;-79
2022/06/29 12:39:06;;;;;;;9.13;5.70;;;29.20;99.90;;;;;;5045791;28;20295;-80
2022/06/29 12:41:34;;;;;;;5.57;4.15;;;29.00;99.90;;;;;;5046453;28;20699;-76
2022/06/29 12:44:02;;;;;;;6.72;4.18;;;28.70;99.90;;;;;;5043824;28;20232;-80
2022/06/29 12:46:29;;;;;;;8.63;4.10;;;28.30;99.90;;;;;;5044259;28;20220;-76
2022/06/29 12:48:56;;;;;;;5.97;4.18;;;28.10;99.90;;;;;;5048787;28;20193;-80
2022/06/29 12:51:23;;;;;;;7.93;5.45;;;28.00;99.90;;;;;;5047633;28;20206;-81
2022/06/29 12:53:50;;;;;;;6.55;4.32;;;27.70;99.90;;;;;;5047329;28;20222;-81
2022/06/29 12:56:18;;;;;;;6.55;4.80;;;27.20;99.90;;;;;;5046623;28;20200;-84
2022/06/29 12:58:45;;;;;;;7.55;5.05;;;27.10;99.90;;;;;;5046447;28;20384;-81
2022/06/29 13:01:12;;;;;;;10.35;5.38;;;27.00;99.90;;;;;;5044121;28;20868;-82
2022/06/29 13:03:39;;;;;;;6.72;4.55;;;27.00;99.90;;;;;;5045613;28;20333;-85
2022/06/29 13:06:06;;;;;;;7.72;4.60;;;27.00;99.90;;;;;;5045505;28;20218;-85
2022/06/29 13:08:34;;;;;;;7.28;4.82;;;27.20;99.90;;;;;;5048716;28;20206;-83
2022/06/29 13:11:01;;;;;;;7.75;4.80;;;27.30;99.90;;;;;;5048563;28;20606;-78
2022/06/29 13:13:30;;;;;;;5.43;3.60;;;27.40;99.90;;;;;;5045825;28;20217;-76